sensor_id;sensor_type;location;lat;lon;timestamp;P1;durP1;ratioP1;P2;durP2;ratioP2
10260;SDS011;5175;42.606;23.388;2023-02-28T00:01:24;22.33;;;18.43;;
10260;SDS011;5175;42.606;23.388;2023-02-28T00:03:52;20.67;;;17.20;;
10260;SDS011;5175;42.606;23.388;2023-02-28T00:06:18;20.23;;;16.60;;
10260;SDS011;5175;42.606;23.388;2023-02-28T00:08:45;17.53;;;14.33;;
10260;SDS011;5175;42.606;23.388;2023-02-28T00:11:13;19.00;;;14.27;;
10260;SDS011;5175;42.606;23.388;2023-02-28T00:13:42;17.73;;;14.60;;
10260;SDS011;5175;42.606;23.388;2023-02-28T00:16:12;19.57;;;14.87;;
10260;SDS011;5175;42.606;23.388;2023-02-28T00:18:42;18.63;;;14.10;;
10260;SDS011;5175;42.606;23.388;2023-02-28T00:21:09;18.07;;;14.17;;
10260;SDS011;5175;42.606;23.388;2023-02-28T00:23:36;18.17;;;13.23;;
10260;SDS011;5175;42.606;23.388;2023-02-28T00:26:03;18.47;;;13.67;;
10260;SDS011;5175;42.606;23.388;2023-02-28T00:28:30;16.63;;;13.77;;
10260;SDS011;5175;42.606;23.388;2023-02-28T00:31:00;18.63;;;15.07;;
10260;SDS011;5175;42.606;23.388;2023-02-28T00:33:27;20.53;;;16.90;;
10260;SDS011;5175;42.606;23.388;2023-02-28T00:36:02;23.37;;;18.43;;
10260;SDS011;5175;42.606;23.388;2023-02-28T00:38:30;33.97;;;19.10;;
10260;SDS011;5175;42.606;23.388;2023-02-28T00:40:57;25.73;;;18.70;;
10260;SDS011;5175;42.606;23.388;2023-02-28T00:43:29;23.27;;;18.17;;
10260;SDS011;5175;42.606;23.388;2023-02-28T00:45:57;22.83;;;19.00;;
10260;SDS011;5175;42.606;23.388;2023-02-28T00:48:23;21.83;;;17.97;;
10260;SDS011;5175;42.606;23.388;2023-02-28T00:50:50;22.23;;;18.07;;
10260;SDS011;5175;42.606;23.388;2023-02-28T00:53:18;22.43;;;16.83;;
10260;SDS011;5175;42.606;23.388;2023-02-28T00:55:45;19.73;;;16.03;;
10260;SDS011;5175;42.606;23.388;2023-02-28T00:58:12;19.63;;;16.67;;
10260;SDS011;5175;42.606;23.388;2023-02-28T01:00:39;19.97;;;16.57;;
10260;SDS011;5175;42.606;23.388;2023-02-28T01:03:06;22.03;;;17.33;;
10260;SDS011;5175;42.606;23.388;2023-02-28T01:05:32;21.00;;;16.50;;
10260;SDS011;5175;42.606;23.388;2023-02-28T01:07:59;20.90;;;15.93;;
10260;SDS011;5175;42.606;23.388;2023-02-28T01:10:27;18.90;;;14.77;;
10260;SDS011;5175;42.606;23.388;2023-02-28T01:12:56;21.10;;;15.87;;
10260;SDS011;5175;42.606;23.388;2023-02-28T01:15:23;17.63;;;14.73;;
10260;SDS011;5175;42.606;23.388;2023-02-28T01:17:50;19.13;;;15.27;;
10260;SDS011;5175;42.606;23.388;2023-02-28T01:20:17;19.10;;;16.33;;
10260;SDS011;5175;42.606;23.388;2023-02-28T01:22:44;20.03;;;15.93;;
10260;SDS011;5175;42.606;23.388;2023-02-28T01:25:11;19.43;;;15.47;;
10260;SDS011;5175;42.606;23.388;2023-02-28T01:27:40;20.80;;;16.27;;
10260;SDS011;5175;42.606;23.388;2023-02-28T01:30:07;18.03;;;15.73;;
10260;SDS011;5175;42.606;23.388;2023-02-28T01:32:35;18.20;;;15.17;;
10260;SDS011;5175;42.606;23.388;2023-02-28T01:35:02;20.23;;;16.10;;
10260;SDS011;5175;42.606;23.388;2023-02-28T01:37:29;20.47;;;16.23;;
10260;SDS011;5175;42.606;23.388;2023-02-28T01:39:55;26.00;;;20.43;;
10260;SDS011;5175;42.606;23.388;2023-02-28T01:42:22;21.40;;;16.50;;
10260;SDS011;5175;42.606;23.388;2023-02-28T01:44:59;19.90;;;15.67;;
10260;SDS011;5175;42.606;23.388;2023-02-28T01:47:29;21.70;;;16.67;;
10260;SDS011;5175;42.606;23.388;2023-02-28T01:49:58;19.97;;;14.37;;
10260;SDS011;5175;42.606;23.388;2023-02-28T01:52:27;18.63;;;16.00;;
10260;SDS011;5175;42.606;23.388;2023-02-28T01:54:55;23.13;;;17.93;;
10260;SDS011;5175;42.606;23.388;2023-02-28T01:57:25;23.13;;;18.77;;
10260;SDS011;5175;42.606;23.388;2023-02-28T01:59:58;21.33;;;18.20;;
10260;SDS011;5175;42.606;23.388;2023-02-28T02:02:32;23.87;;;17.17;;
10260;SDS011;5175;42.606;23.388;2023-02-28T02:05:04;27.30;;;17.90;;
10260;SDS011;5175;42.606;23.388;2023-02-28T02:07:33;27.67;;;17.53;;
10260;SDS011;5175;42.606;23.388;2023-02-28T02:10:04;37.37;;;17.77;;
10260;SDS011;5175;42.606;23.388;2023-02-28T02:12:36;57.30;;;18.00;;
10260;SDS011;5175;42.606;23.388;2023-02-28T02:15:19;43.93;;;18.77;;
10260;SDS011;5175;42.606;23.388;2023-02-28T02:17:53;97.77;;;22.17;;
10260;SDS011;5175;42.606;23.388;2023-02-28T02:32:49;147.60;;;25.27;;
10260;SDS011;5175;42.606;23.388;2023-02-28T02:35:34;48.47;;;17.93;;
10260;SDS011;5175;42.606;23.388;2023-02-28T02:38:08;120.77;;;19.67;;
10260;SDS011;5175;42.606;23.388;2023-02-28T02:40:42;37.80;;;16.93;;
10260;SDS011;5175;42.606;23.388;2023-02-28T02:43:13;29.40;;;17.53;;
10260;SDS011;5175;42.606;23.388;2023-02-28T02:45:46;23.83;;;16.57;;
10260;SDS011;5175;42.606;23.388;2023-02-28T02:48:18;21.70;;;16.70;;
10260;SDS011;5175;42.606;23.388;2023-02-28T02:50:49;20.00;;;15.00;;
10260;SDS011;5175;42.606;23.388;2023-02-28T02:53:21;16.73;;;13.13;;
10260;SDS011;5175;42.606;23.388;2023-02-28T02:55:53;19.90;;;13.27;;
10260;SDS011;5175;42.606;23.388;2023-02-28T02:58:24;16.77;;;13.20;;
10260;SDS011;5175;42.606;23.388;2023-02-28T03:00:55;16.67;;;12.90;;
10260;SDS011;5175;42.606;23.388;2023-02-28T03:03:25;18.07;;;13.97;;
10260;SDS011;5175;42.606;23.388;2023-02-28T03:05:56;23.60;;;14.43;;
10260;SDS011;5175;42.606;23.388;2023-02-28T03:08:25;18.60;;;14.13;;
10260;SDS011;5175;42.606;23.388;2023-02-28T03:10:55;18.70;;;15.10;;
10260;SDS011;5175;42.606;23.388;2023-02-28T03:13:29;17.73;;;13.73;;
10260;SDS011;5175;42.606;23.388;2023-02-28T03:16:25;17.77;;;13.00;;
10260;SDS011;5175;42.606;23.388;2023-02-28T03:19:02;16.67;;;13.33;;
10260;SDS011;5175;42.606;23.388;2023-02-28T03:21:40;17.13;;;12.43;;
10260;SDS011;5175;42.606;23.388;2023-02-28T03:24:14;22.63;;;14.27;;
10260;SDS011;5175;42.606;23.388;2023-02-28T03:26:46;24.70;;;15.93;;
10260;SDS011;5175;42.606;23.388;2023-02-28T03:29:20;54.33;;;17.03;;
10260;SDS011;5175;42.606;23.388;2023-02-28T03:31:54;123.90;;;20.63;;
10260;SDS011;5175;42.606;23.388;2023-02-28T03:34:26;401.73;;;34.20;;
10260;SDS011;5175;42.606;23.388;2023-02-28T03:37:00;207.90;;;25.70;;
10260;SDS011;5175;42.606;23.388;2023-02-28T03:39:31;80.40;;;21.43;;
10260;SDS011;5175;42.606;23.388;2023-02-28T03:42:04;183.50;;;25.57;;
10260;SDS011;5175;42.606;23.388;2023-02-28T03:44:36;397.83;;;39.37;;
10260;SDS011;5175;42.606;23.388;2023-02-28T03:47:07;279.57;;;32.40;;
10260;SDS011;5175;42.606;23.388;2023-02-28T03:49:38;384.23;;;35.00;;
10260;SDS011;5175;42.606;23.388;2023-02-28T03:52:10;78.43;;;23.40;;
10260;SDS011;5175;42.606;23.388;2023-02-28T03:54:39;234.13;;;26.80;;
10260;SDS011;5175;42.606;23.388;2023-02-28T03:57:10;124.77;;;23.60;;
10260;SDS011;5175;42.606;23.388;2023-02-28T03:59:45;24.50;;;16.30;;
10260;SDS011;5175;42.606;23.388;2023-02-28T04:02:15;85.63;;;20.47;;
10260;SDS011;5175;42.606;23.388;2023-02-28T04:04:45;69.90;;;35.50;;
10260;SDS011;5175;42.606;23.388;2023-02-28T04:07:14;56.07;;;24.60;;
10260;SDS011;5175;42.606;23.388;2023-02-28T04:09:42;31.27;;;20.17;;
10260;SDS011;5175;42.606;23.388;2023-02-28T04:12:12;197.87;;;26.50;;
10260;SDS011;5175;42.606;23.388;2023-02-28T04:14:39;72.57;;;17.83;;
10260;SDS011;5175;42.606;23.388;2023-02-28T04:17:06;26.70;;;15.67;;
10260;SDS011;5175;42.606;23.388;2023-02-28T04:19:32;55.43;;;16.70;;
10260;SDS011;5175;42.606;23.388;2023-02-28T04:21:59;46.23;;;19.00;;
10260;SDS011;5175;42.606;23.388;2023-02-28T04:24:27;70.37;;;18.77;;
10260;SDS011;5175;42.606;23.388;2023-02-28T04:26:55;36.13;;;17.73;;
10260;SDS011;5175;42.606;23.388;2023-02-28T04:29:24;37.20;;;15.57;;
10260;SDS011;5175;42.606;23.388;2023-02-28T04:31:52;37.97;;;16.33;;
10260;SDS011;5175;42.606;23.388;2023-02-28T04:34:19;72.73;;;17.10;;
10260;SDS011;5175;42.606;23.388;2023-02-28T04:36:46;77.07;;;18.07;;
10260;SDS011;5175;42.606;23.388;2023-02-28T04:39:14;173.63;;;22.37;;
10260;SDS011;5175;42.606;23.388;2023-02-28T04:41:45;219.53;;;25.93;;
10260;SDS011;5175;42.606;23.388;2023-02-28T04:44:12;174.43;;;23.47;;
10260;SDS011;5175;42.606;23.388;2023-02-28T04:46:39;58.50;;;19.33;;
10260;SDS011;5175;42.606;23.388;2023-02-28T04:49:06;327.27;;;28.67;;
10260;SDS011;5175;42.606;23.388;2023-02-28T04:51:33;118.23;;;19.13;;
10260;SDS011;5175;42.606;23.388;2023-02-28T04:54:00;209.80;;;23.43;;
10260;SDS011;5175;42.606;23.388;2023-02-28T04:56:26;260.87;;;25.33;;
10260;SDS011;5175;42.606;23.388;2023-02-28T04:58:54;44.37;;;18.73;;
10260;SDS011;5175;42.606;23.388;2023-02-28T05:01:22;120.87;;;23.07;;
10260;SDS011;5175;42.606;23.388;2023-02-28T05:03:51;213.93;;;26.40;;
10260;SDS011;5175;42.606;23.388;2023-02-28T05:06:19;228.90;;;26.03;;
10260;SDS011;5175;42.606;23.388;2023-02-28T05:08:49;100.23;;;21.43;;
10260;SDS011;5175;42.606;23.388;2023-02-28T05:11:18;214.10;;;24.57;;
10260;SDS011;5175;42.606;23.388;2023-02-28T05:13:47;80.13;;;20.30;;
10260;SDS011;5175;42.606;23.388;2023-02-28T05:16:16;397.43;;;33.70;;
10260;SDS011;5175;42.606;23.388;2023-02-28T05:18:43;139.50;;;23.97;;
10260;SDS011;5175;42.606;23.388;2023-02-28T05:21:22;117.53;;;23.43;;
10260;SDS011;5175;42.606;23.388;2023-02-28T05:23:51;41.03;;;20.67;;
10260;SDS011;5175;42.606;23.388;2023-02-28T05:26:21;46.23;;;19.73;;
10260;SDS011;5175;42.606;23.388;2023-02-28T05:28:48;77.23;;;21.73;;
10260;SDS011;5175;42.606;23.388;2023-02-28T05:31:16;362.70;;;29.30;;
10260;SDS011;5175;42.606;23.388;2023-02-28T05:33:43;192.77;;;24.37;;
10260;SDS011;5175;42.606;23.388;2023-02-28T05:36:10;132.50;;;22.03;;
10260;SDS011;5175;42.606;23.388;2023-02-28T05:38:37;121.57;;;23.27;;
10260;SDS011;5175;42.606;23.388;2023-02-28T05:41:07;88.40;;;21.73;;
10260;SDS011;5175;42.606;23.388;2023-02-28T05:43:34;71.33;;;20.60;;
10260;SDS011;5175;42.606;23.388;2023-02-28T05:46:02;50.13;;;21.40;;
10260;SDS011;5175;42.606;23.388;2023-02-28T05:48:32;42.20;;;20.53;;
10260;SDS011;5175;42.606;23.388;2023-02-28T05:50:59;35.97;;;21.67;;
10260;SDS011;5175;42.606;23.388;2023-02-28T05:53:26;31.83;;;19.63;;
10260;SDS011;5175;42.606;23.388;2023-02-28T05:55:53;20.93;;;16.27;;
10260;SDS011;5175;42.606;23.388;2023-02-28T05:58:20;21.07;;;15.83;;
10260;SDS011;5175;42.606;23.388;2023-02-28T06:00:47;23.50;;;15.60;;
10260;SDS011;5175;42.606;23.388;2023-02-28T06:03:14;24.13;;;17.43;;
10260;SDS011;5175;42.606;23.388;2023-02-28T06:05:42;21.80;;;16.87;;
10260;SDS011;5175;42.606;23.388;2023-02-28T06:08:09;20.47;;;15.70;;
10260;SDS011;5175;42.606;23.388;2023-02-28T06:10:37;24.97;;;18.00;;
10260;SDS011;5175;42.606;23.388;2023-02-28T06:13:04;20.43;;;16.47;;
10260;SDS011;5175;42.606;23.388;2023-02-28T06:15:31;26.47;;;18.10;;
10260;SDS011;5175;42.606;23.388;2023-02-28T06:17:58;19.60;;;16.03;;
10260;SDS011;5175;42.606;23.388;2023-02-28T06:20:27;19.13;;;15.00;;
10260;SDS011;5175;42.606;23.388;2023-02-28T06:22:57;15.67;;;12.87;;
10260;SDS011;5175;42.606;23.388;2023-02-28T06:25:24;12.97;;;9.80;;
10260;SDS011;5175;42.606;23.388;2023-02-28T06:27:52;11.30;;;8.83;;
10260;SDS011;5175;42.606;23.388;2023-02-28T06:30:19;10.87;;;7.30;;
10260;SDS011;5175;42.606;23.388;2023-02-28T06:32:51;8.30;;;6.30;;
10260;SDS011;5175;42.606;23.388;2023-02-28T06:35:19;7.00;;;6.07;;
10260;SDS011;5175;42.606;23.388;2023-02-28T06:37:47;8.93;;;6.23;;
10260;SDS011;5175;42.606;23.388;2023-02-28T06:40:15;8.20;;;5.73;;
10260;SDS011;5175;42.606;23.388;2023-02-28T06:42:43;10.03;;;6.37;;
10260;SDS011;5175;42.606;23.388;2023-02-28T06:45:10;9.10;;;5.57;;
10260;SDS011;5175;42.606;23.388;2023-02-28T06:47:37;9.17;;;6.50;;
10260;SDS011;5175;42.606;23.388;2023-02-28T06:50:06;9.67;;;6.27;;
10260;SDS011;5175;42.606;23.388;2023-02-28T06:52:34;8.60;;;6.37;;
10260;SDS011;5175;42.606;23.388;2023-02-28T06:55:02;9.93;;;7.00;;
10260;SDS011;5175;42.606;23.388;2023-02-28T06:57:32;9.47;;;6.33;;
10260;SDS011;5175;42.606;23.388;2023-02-28T07:00:04;13.23;;;7.63;;
10260;SDS011;5175;42.606;23.388;2023-02-28T07:02:32;12.57;;;7.97;;
10260;SDS011;5175;42.606;23.388;2023-02-28T07:05:00;14.00;;;9.00;;
10260;SDS011;5175;42.606;23.388;2023-02-28T07:07:26;14.57;;;9.30;;
10260;SDS011;5175;42.606;23.388;2023-02-28T07:09:53;13.77;;;9.17;;
10260;SDS011;5175;42.606;23.388;2023-02-28T07:12:20;15.70;;;9.60;;
10260;SDS011;5175;42.606;23.388;2023-02-28T07:14:48;17.10;;;10.63;;
10260;SDS011;5175;42.606;23.388;2023-02-28T07:17:16;19.23;;;12.57;;
10260;SDS011;5175;42.606;23.388;2023-02-28T07:19:43;18.47;;;12.53;;
10260;SDS011;5175;42.606;23.388;2023-02-28T07:22:09;18.60;;;14.77;;
10260;SDS011;5175;42.606;23.388;2023-02-28T07:24:36;23.73;;;16.97;;
10260;SDS011;5175;42.606;23.388;2023-02-28T07:27:05;25.10;;;18.10;;
10260;SDS011;5175;42.606;23.388;2023-02-28T07:29:31;26.47;;;19.17;;
10260;SDS011;5175;42.606;23.388;2023-02-28T07:32:00;27.40;;;19.63;;
10260;SDS011;5175;42.606;23.388;2023-02-28T07:34:27;28.93;;;19.73;;
10260;SDS011;5175;42.606;23.388;2023-02-28T07:36:57;26.57;;;19.97;;
10260;SDS011;5175;42.606;23.388;2023-02-28T07:39:24;25.00;;;18.83;;
10260;SDS011;5175;42.606;23.388;2023-02-28T07:41:51;27.90;;;17.63;;
10260;SDS011;5175;42.606;23.388;2023-02-28T07:44:18;24.30;;;17.87;;
10260;SDS011;5175;42.606;23.388;2023-02-28T07:46:46;27.57;;;17.40;;
10260;SDS011;5175;42.606;23.388;2023-02-28T07:49:14;25.77;;;17.77;;
10260;SDS011;5175;42.606;23.388;2023-02-28T07:51:41;27.30;;;18.50;;
10260;SDS011;5175;42.606;23.388;2023-02-28T07:54:07;27.80;;;19.37;;
10260;SDS011;5175;42.606;23.388;2023-02-28T07:56:37;21.23;;;15.80;;
10260;SDS011;5175;42.606;23.388;2023-02-28T07:59:04;23.27;;;15.43;;
10260;SDS011;5175;42.606;23.388;2023-02-28T08:01:30;23.53;;;14.40;;
10260;SDS011;5175;42.606;23.388;2023-02-28T08:03:57;24.17;;;14.80;;
10260;SDS011;5175;42.606;23.388;2023-02-28T08:06:25;265.80;;;29.73;;
10260;SDS011;5175;42.606;23.388;2023-02-28T08:08:52;24.30;;;14.43;;
10260;SDS011;5175;42.606;23.388;2023-02-28T08:11:21;25.93;;;13.63;;
10260;SDS011;5175;42.606;23.388;2023-02-28T08:13:48;23.53;;;13.33;;
10260;SDS011;5175;42.606;23.388;2023-02-28T08:16:14;20.50;;;14.17;;
10260;SDS011;5175;42.606;23.388;2023-02-28T08:18:46;24.50;;;13.83;;
10260;SDS011;5175;42.606;23.388;2023-02-28T08:21:13;21.13;;;13.27;;
10260;SDS011;5175;42.606;23.388;2023-02-28T08:23:42;19.03;;;12.37;;
10260;SDS011;5175;42.606;23.388;2023-02-28T08:26:08;22.80;;;13.10;;
10260;SDS011;5175;42.606;23.388;2023-02-28T08:28:36;21.70;;;12.70;;
10260;SDS011;5175;42.606;23.388;2023-02-28T08:31:07;19.47;;;12.67;;
10260;SDS011;5175;42.606;23.388;2023-02-28T08:33:35;16.03;;;12.20;;
10260;SDS011;5175;42.606;23.388;2023-02-28T08:36:04;17.20;;;12.00;;
10260;SDS011;5175;42.606;23.388;2023-02-28T08:38:31;17.63;;;10.77;;
10260;SDS011;5175;42.606;23.388;2023-02-28T08:41:00;17.23;;;11.93;;
10260;SDS011;5175;42.606;23.388;2023-02-28T08:43:30;20.93;;;11.00;;
10260;SDS011;5175;42.606;23.388;2023-02-28T08:45:57;12.87;;;9.37;;
10260;SDS011;5175;42.606;23.388;2023-02-28T08:48:24;15.20;;;9.70;;
10260;SDS011;5175;42.606;23.388;2023-02-28T08:50:55;16.80;;;10.00;;
10260;SDS011;5175;42.606;23.388;2023-02-28T08:53:22;18.00;;;10.73;;
10260;SDS011;5175;42.606;23.388;2023-02-28T08:55:55;15.27;;;10.27;;
10260;SDS011;5175;42.606;23.388;2023-02-28T08:58:24;18.53;;;10.60;;
10260;SDS011;5175;42.606;23.388;2023-02-28T09:00:51;17.83;;;10.90;;
10260;SDS011;5175;42.606;23.388;2023-02-28T09:03:19;15.23;;;10.50;;
10260;SDS011;5175;42.606;23.388;2023-02-28T09:05:53;20.57;;;11.23;;
10260;SDS011;5175;42.606;23.388;2023-02-28T09:08:24;20.50;;;11.50;;
10260;SDS011;5175;42.606;23.388;2023-02-28T09:10:52;21.00;;;11.63;;
10260;SDS011;5175;42.606;23.388;2023-02-28T09:13:19;19.47;;;11.27;;
10260;SDS011;5175;42.606;23.388;2023-02-28T09:15:48;19.03;;;11.13;;
10260;SDS011;5175;42.606;23.388;2023-02-28T09:18:15;21.83;;;11.27;;
10260;SDS011;5175;42.606;23.388;2023-02-28T09:20:43;21.87;;;11.13;;
10260;SDS011;5175;42.606;23.388;2023-02-28T09:23:11;19.13;;;10.30;;
10260;SDS011;5175;42.606;23.388;2023-02-28T09:25:40;18.40;;;9.73;;
10260;SDS011;5175;42.606;23.388;2023-02-28T09:28:12;16.00;;;9.80;;
10260;SDS011;5175;42.606;23.388;2023-02-28T09:30:40;17.50;;;9.77;;
10260;SDS011;5175;42.606;23.388;2023-02-28T09:33:09;17.83;;;10.27;;
10260;SDS011;5175;42.606;23.388;2023-02-28T09:35:38;19.67;;;11.13;;
10260;SDS011;5175;42.606;23.388;2023-02-28T09:38:05;17.73;;;11.40;;
10260;SDS011;5175;42.606;23.388;2023-02-28T09:40:35;19.03;;;10.57;;
10260;SDS011;5175;42.606;23.388;2023-02-28T09:43:03;18.37;;;10.93;;
10260;SDS011;5175;42.606;23.388;2023-02-28T09:45:32;15.37;;;10.03;;
10260;SDS011;5175;42.606;23.388;2023-02-28T09:48:03;17.10;;;9.87;;
10260;SDS011;5175;42.606;23.388;2023-02-28T09:50:38;22.50;;;10.57;;
10260;SDS011;5175;42.606;23.388;2023-02-28T09:53:11;17.73;;;10.20;;
10260;SDS011;5175;42.606;23.388;2023-02-28T09:55:47;16.27;;;9.87;;
10260;SDS011;5175;42.606;23.388;2023-02-28T09:58:18;21.30;;;10.90;;
10260;SDS011;5175;42.606;23.388;2023-02-28T10:00:56;18.20;;;10.23;;
10260;SDS011;5175;42.606;23.388;2023-02-28T10:03:30;21.67;;;9.70;;
10260;SDS011;5175;42.606;23.388;2023-02-28T10:06:05;22.27;;;10.03;;
10260;SDS011;5175;42.606;23.388;2023-02-28T10:08:38;15.23;;;9.80;;
10260;SDS011;5175;42.606;23.388;2023-02-28T10:11:12;15.80;;;9.50;;
10260;SDS011;5175;42.606;23.388;2023-02-28T10:13:46;19.20;;;10.37;;
10260;SDS011;5175;42.606;23.388;2023-02-28T10:16:22;13.90;;;9.90;;
10260;SDS011;5175;42.606;23.388;2023-02-28T10:18:54;21.87;;;10.37;;
10260;SDS011;5175;42.606;23.388;2023-02-28T10:21:28;17.67;;;10.70;;
10260;SDS011;5175;42.606;23.388;2023-02-28T10:24:02;16.97;;;9.70;;
10260;SDS011;5175;42.606;23.388;2023-02-28T10:26:32;15.10;;;9.30;;
10260;SDS011;5175;42.606;23.388;2023-02-28T10:28:59;20.17;;;10.27;;
10260;SDS011;5175;42.606;23.388;2023-02-28T10:31:28;19.60;;;9.77;;
10260;SDS011;5175;42.606;23.388;2023-02-28T10:33:55;19.23;;;9.93;;
10260;SDS011;5175;42.606;23.388;2023-02-28T10:36:22;18.30;;;10.07;;
10260;SDS011;5175;42.606;23.388;2023-02-28T10:38:51;16.87;;;10.00;;
10260;SDS011;5175;42.606;23.388;2023-02-28T10:41:26;19.00;;;10.23;;
10260;SDS011;5175;42.606;23.388;2023-02-28T10:46:41;16.77;;;9.80;;
10260;SDS011;5175;42.606;23.388;2023-02-28T10:49:12;16.47;;;10.47;;
10260;SDS011;5175;42.606;23.388;2023-02-28T10:51:41;18.87;;;10.70;;
10260;SDS011;5175;42.606;23.388;2023-02-28T10:54:16;20.90;;;9.63;;
10260;SDS011;5175;42.606;23.388;2023-02-28T10:56:45;19.83;;;10.63;;
10260;SDS011;5175;42.606;23.388;2023-02-28T10:59:32;19.33;;;10.10;;
10260;SDS011;5175;42.606;23.388;2023-02-28T11:01:59;18.43;;;10.83;;
10260;SDS011;5175;42.606;23.388;2023-02-28T11:04:33;20.00;;;10.97;;
10260;SDS011;5175;42.606;23.388;2023-02-28T11:07:04;22.47;;;10.77;;
10260;SDS011;5175;42.606;23.388;2023-02-28T11:09:35;17.70;;;10.53;;
10260;SDS011;5175;42.606;23.388;2023-02-28T11:12:05;20.23;;;10.97;;
10260;SDS011;5175;42.606;23.388;2023-02-28T11:14:46;18.30;;;11.47;;
10260;SDS011;5175;42.606;23.388;2023-02-28T11:17:18;17.27;;;10.27;;
10260;SDS011;5175;42.606;23.388;2023-02-28T11:19:47;14.93;;;10.33;;
10260;SDS011;5175;42.606;23.388;2023-02-28T11:22:18;17.30;;;11.40;;
10260;SDS011;5175;42.606;23.388;2023-02-28T11:24:50;20.03;;;11.03;;
10260;SDS011;5175;42.606;23.388;2023-02-28T11:27:26;22.43;;;11.80;;
10260;SDS011;5175;42.606;23.388;2023-02-28T11:33:01;21.17;;;11.33;;
10260;SDS011;5175;42.606;23.388;2023-02-28T11:35:49;18.67;;;11.83;;
10260;SDS011;5175;42.606;23.388;2023-02-28T11:38:18;18.93;;;11.83;;
10260;SDS011;5175;42.606;23.388;2023-02-28T11:40:48;18.07;;;11.37;;
10260;SDS011;5175;42.606;23.388;2023-02-28T11:43:29;20.57;;;11.87;;
10260;SDS011;5175;42.606;23.388;2023-02-28T11:46:13;20.97;;;11.93;;
10260;SDS011;5175;42.606;23.388;2023-02-28T11:48:52;20.37;;;11.57;;
10260;SDS011;5175;42.606;23.388;2023-02-28T11:51:27;20.13;;;12.73;;
10260;SDS011;5175;42.606;23.388;2023-02-28T11:54:04;17.83;;;12.10;;
10260;SDS011;5175;42.606;23.388;2023-02-28T11:56:46;20.67;;;12.37;;
10260;SDS011;5175;42.606;23.388;2023-02-28T11:59:22;21.53;;;13.47;;
10260;SDS011;5175;42.606;23.388;2023-02-28T12:05:10;19.90;;;13.00;;
10260;SDS011;5175;42.606;23.388;2023-02-28T12:07:51;21.50;;;13.73;;
10260;SDS011;5175;42.606;23.388;2023-02-28T12:10:28;23.60;;;13.77;;
10260;SDS011;5175;42.606;23.388;2023-02-28T12:13:06;22.00;;;13.80;;
10260;SDS011;5175;42.606;23.388;2023-02-28T12:15:54;18.83;;;12.00;;
10260;SDS011;5175;42.606;23.388;2023-02-28T12:18:43;18.53;;;12.23;;
10260;SDS011;5175;42.606;23.388;2023-02-28T12:21:24;18.80;;;12.77;;
10260;SDS011;5175;42.606;23.388;2023-02-28T12:24:04;18.43;;;13.17;;
10260;SDS011;5175;42.606;23.388;2023-02-28T12:26:52;16.33;;;12.50;;
10260;SDS011;5175;42.606;23.388;2023-02-28T12:29:26;20.57;;;13.83;;
10260;SDS011;5175;42.606;23.388;2023-02-28T12:31:55;21.47;;;13.40;;
10260;SDS011;5175;42.606;23.388;2023-02-28T12:34:27;21.73;;;13.40;;
10260;SDS011;5175;42.606;23.388;2023-02-28T12:36:58;17.10;;;12.17;;
10260;SDS011;5175;42.606;23.388;2023-02-28T12:39:30;20.23;;;14.47;;
10260;SDS011;5175;42.606;23.388;2023-02-28T12:42:03;19.17;;;12.60;;
10260;SDS011;5175;42.606;23.388;2023-02-28T12:44:39;21.53;;;13.73;;
10260;SDS011;5175;42.606;23.388;2023-02-28T12:47:13;22.60;;;13.17;;
10260;SDS011;5175;42.606;23.388;2023-02-28T12:49:43;23.67;;;13.73;;
10260;SDS011;5175;42.606;23.388;2023-02-28T12:52:16;22.07;;;13.40;;
10260;SDS011;5175;42.606;23.388;2023-02-28T12:54:49;18.93;;;12.80;;
10260;SDS011;5175;42.606;23.388;2023-02-28T12:57:25;20.77;;;13.83;;
10260;SDS011;5175;42.606;23.388;2023-02-28T13:00:03;18.53;;;12.97;;
10260;SDS011;5175;42.606;23.388;2023-02-28T13:08:37;18.13;;;11.67;;
10260;SDS011;5175;42.606;23.388;2023-02-28T13:11:24;16.87;;;12.10;;
10260;SDS011;5175;42.606;23.388;2023-02-28T13:13:57;21.27;;;12.20;;
10260;SDS011;5175;42.606;23.388;2023-02-28T13:16:27;19.27;;;12.03;;
10260;SDS011;5175;42.606;23.388;2023-02-28T13:19:16;18.40;;;12.37;;
10260;SDS011;5175;42.606;23.388;2023-02-28T13:21:46;26.50;;;12.97;;
10260;SDS011;5175;42.606;23.388;2023-02-28T13:33:27;19.97;;;11.67;;
10260;SDS011;5175;42.606;23.388;2023-02-28T13:36:22;17.27;;;11.13;;
10260;SDS011;5175;42.606;23.388;2023-02-28T13:38:51;18.00;;;11.43;;
10260;SDS011;5175;42.606;23.388;2023-02-28T13:44:10;17.83;;;12.13;;
10260;SDS011;5175;42.606;23.388;2023-02-28T13:49:39;21.10;;;12.13;;
10260;SDS011;5175;42.606;23.388;2023-02-28T13:52:07;20.00;;;12.13;;
10260;SDS011;5175;42.606;23.388;2023-02-28T13:54:44;19.60;;;12.87;;
10260;SDS011;5175;42.606;23.388;2023-02-28T13:57:26;20.30;;;12.20;;
10260;SDS011;5175;42.606;23.388;2023-02-28T14:00:08;20.90;;;11.77;;
10260;SDS011;5175;42.606;23.388;2023-02-28T14:02:52;20.47;;;12.03;;
10260;SDS011;5175;42.606;23.388;2023-02-28T14:05:35;18.03;;;12.20;;
10260;SDS011;5175;42.606;23.388;2023-02-28T14:08:04;19.40;;;12.43;;
10260;SDS011;5175;42.606;23.388;2023-02-28T14:10:41;22.83;;;12.83;;
10260;SDS011;5175;42.606;23.388;2023-02-28T14:13:13;22.40;;;13.33;;
10260;SDS011;5175;42.606;23.388;2023-02-28T14:16:09;23.83;;;13.07;;
10260;SDS011;5175;42.606;23.388;2023-02-28T14:18:37;21.83;;;13.00;;
10260;SDS011;5175;42.606;23.388;2023-02-28T14:21:12;23.97;;;13.40;;
10260;SDS011;5175;42.606;23.388;2023-02-28T14:23:55;18.33;;;12.17;;
10260;SDS011;5175;42.606;23.388;2023-02-28T14:26:51;21.13;;;12.83;;
10260;SDS011;5175;42.606;23.388;2023-02-28T14:29:45;21.07;;;14.20;;
10260;SDS011;5175;42.606;23.388;2023-02-28T14:32:35;20.03;;;12.97;;
10260;SDS011;5175;42.606;23.388;2023-02-28T14:35:21;20.40;;;12.23;;
10260;SDS011;5175;42.606;23.388;2023-02-28T14:38:04;22.83;;;13.10;;
10260;SDS011;5175;42.606;23.388;2023-02-28T14:40:33;22.10;;;12.70;;
10260;SDS011;5175;42.606;23.388;2023-02-28T14:43:02;22.67;;;13.57;;
10260;SDS011;5175;42.606;23.388;2023-02-28T14:45:31;20.43;;;13.37;;
10260;SDS011;5175;42.606;23.388;2023-02-28T14:47:59;21.50;;;13.20;;
10260;SDS011;5175;42.606;23.388;2023-02-28T14:50:29;23.57;;;14.63;;
10260;SDS011;5175;42.606;23.388;2023-02-28T14:52:58;18.53;;;12.30;;
10260;SDS011;5175;42.606;23.388;2023-02-28T14:55:28;24.00;;;12.97;;
10260;SDS011;5175;42.606;23.388;2023-02-28T14:57:57;19.27;;;12.00;;
10260;SDS011;5175;42.606;23.388;2023-02-28T15:00:26;23.13;;;14.10;;
10260;SDS011;5175;42.606;23.388;2023-02-28T15:02:58;22.23;;;14.13;;
10260;SDS011;5175;42.606;23.388;2023-02-28T15:05:27;22.93;;;13.73;;
10260;SDS011;5175;42.606;23.388;2023-02-28T15:08:03;20.30;;;12.93;;
10260;SDS011;5175;42.606;23.388;2023-02-28T15:10:34;21.47;;;12.87;;
10260;SDS011;5175;42.606;23.388;2023-02-28T15:13:02;21.10;;;13.03;;
10260;SDS011;5175;42.606;23.388;2023-02-28T15:15:35;20.37;;;11.33;;
10260;SDS011;5175;42.606;23.388;2023-02-28T15:18:08;19.77;;;12.07;;
10260;SDS011;5175;42.606;23.388;2023-02-28T15:20:42;19.13;;;12.67;;
10260;SDS011;5175;42.606;23.388;2023-02-28T15:23:11;18.47;;;12.67;;
10260;SDS011;5175;42.606;23.388;2023-02-28T15:25:39;21.47;;;12.43;;